KMOT/MOT METAR and TAF weather

Enter ICAO airport designator
Station Type Date Time Source
KMOT METAR 2022/05/26 05:54 UTC NOAA

KMOT 260554Z AUTO 14009KT 10SM OVC080 16/06 A2982 RMK AO2 SLP094 T01610061 10222 20161 402330083 58003


Station Type Date Time Source
KMOT Decoded METAR 2022/05/26 05:54 UTC NOAA

MINOT INTERNATIONAL AIRPORT , ND, United States (KMOT) 48-16N 101-17W 519M
May 26, 2022 - 01:54 AM EDT / 2022.05.26 0554 UTC
Wind: from the SE (140 degrees) at 10 MPH (9 KT):0
Visibility: 10 mile(s):0
Sky conditions: overcast
Temperature: 61.0 F (16.1 C)
Dew Point: 43.0 F (6.1 C)
Relative Humidity: 51%
Pressure (altimeter): 29.82 in. Hg (1009 hPa)
Pressure tendency: 0.01 inches (0.3 hPa) lower than three hours ago
ob: KMOT 260554Z AUTO 14009KT 10SM OVC080 16/06 A2982 RMK AO2 SLP094 T01610061 10222 20161 402330083 58003
cycle: 6

Station Type Date Time Source
KMOT TAF 2022/05/26 06:24 UTC NOAA

TAF KMOT 260522Z 2606/2706 17009KT P6SM SCT080 BKN090
FM261700 30011G19KT P6SM FEW070 FEW250
FM270100 30009KT P6SM FEW100 SCT250

Example: see airport list